sensor_id;sensor_type;location;lat;lon;timestamp;P1;durP1;ratioP1;P2;durP2;ratioP2
4198;SDS011;2113;50.946;14.610;2023-06-10T00:00:10;8.90;;;7.30;;
4198;SDS011;2113;50.946;14.610;2023-06-10T00:02:42;9.93;;;8.20;;
4198;SDS011;2113;50.946;14.610;2023-06-10T00:05:11;12.95;;;8.00;;
4198;SDS011;2113;50.946;14.610;2023-06-10T00:07:40;9.73;;;8.73;;
4198;SDS011;2113;50.946;14.610;2023-06-10T00:10:08;9.25;;;7.80;;
4198;SDS011;2113;50.946;14.610;2023-06-10T00:12:37;10.60;;;7.80;;
4198;SDS011;2113;50.946;14.610;2023-06-10T00:15:07;10.13;;;7.80;;
4198;SDS011;2113;50.946;14.610;2023-06-10T00:17:38;8.77;;;7.88;;
4198;SDS011;2113;50.946;14.610;2023-06-10T00:20:08;9.48;;;8.05;;
4198;SDS011;2113;50.946;14.610;2023-06-10T00:22:39;10.77;;;8.48;;
4198;SDS011;2113;50.946;14.610;2023-06-10T00:25:08;12.05;;;7.75;;
4198;SDS011;2113;50.946;14.610;2023-06-10T00:27:38;10.38;;;8.07;;
4198;SDS011;2113;50.946;14.610;2023-06-10T00:30:06;9.00;;;7.85;;
4198;SDS011;2113;50.946;14.610;2023-06-10T00:32:35;11.43;;;8.27;;
4198;SDS011;2113;50.946;14.610;2023-06-10T00:35:06;10.45;;;8.35;;
4198;SDS011;2113;50.946;14.610;2023-06-10T00:37:35;11.95;;;9.25;;
4198;SDS011;2113;50.946;14.610;2023-06-10T00:40:05;10.90;;;8.85;;
4198;SDS011;2113;50.946;14.610;2023-06-10T00:42:36;17.10;;;10.38;;
4198;SDS011;2113;50.946;14.610;2023-06-10T00:45:04;12.32;;;10.23;;
4198;SDS011;2113;50.946;14.610;2023-06-10T00:47:35;12.55;;;9.25;;
4198;SDS011;2113;50.946;14.610;2023-06-10T00:50:06;15.82;;;10.10;;
4198;SDS011;2113;50.946;14.610;2023-06-10T00:52:35;13.25;;;9.10;;
4198;SDS011;2113;50.946;14.610;2023-06-10T00:55:04;13.88;;;8.05;;
4198;SDS011;2113;50.946;14.610;2023-06-10T00:57:35;7.15;;;6.30;;
4198;SDS011;2113;50.946;14.610;2023-06-10T01:00:05;10.52;;;7.25;;
4198;SDS011;2113;50.946;14.610;2023-06-10T01:02:35;7.72;;;5.45;;
4198;SDS011;2113;50.946;14.610;2023-06-10T01:05:06;6.80;;;5.63;;
4198;SDS011;2113;50.946;14.610;2023-06-10T01:07:36;7.30;;;6.35;;
4198;SDS011;2113;50.946;14.610;2023-06-10T01:10:09;6.68;;;5.65;;
4198;SDS011;2113;50.946;14.610;2023-06-10T01:12:45;8.10;;;5.80;;
4198;SDS011;2113;50.946;14.610;2023-06-10T01:15:20;7.85;;;6.15;;
4198;SDS011;2113;50.946;14.610;2023-06-10T01:17:55;8.05;;;5.88;;
4198;SDS011;2113;50.946;14.610;2023-06-10T01:20:27;7.38;;;6.05;;
4198;SDS011;2113;50.946;14.610;2023-06-10T01:22:58;9.20;;;5.75;;
4198;SDS011;2113;50.946;14.610;2023-06-10T01:25:28;7.53;;;6.25;;
4198;SDS011;2113;50.946;14.610;2023-06-10T01:28:02;6.97;;;5.72;;
4198;SDS011;2113;50.946;14.610;2023-06-10T01:30:37;6.07;;;5.07;;
4198;SDS011;2113;50.946;14.610;2023-06-10T01:33:10;6.65;;;5.85;;
4198;SDS011;2113;50.946;14.610;2023-06-10T01:35:42;8.20;;;6.20;;
4198;SDS011;2113;50.946;14.610;2023-06-10T01:38:13;9.20;;;5.95;;
4198;SDS011;2113;50.946;14.610;2023-06-10T01:40:43;9.45;;;6.03;;
4198;SDS011;2113;50.946;14.610;2023-06-10T01:43:12;7.90;;;5.80;;
4198;SDS011;2113;50.946;14.610;2023-06-10T01:45:40;7.68;;;5.88;;
4198;SDS011;2113;50.946;14.610;2023-06-10T01:48:08;9.15;;;6.90;;
4198;SDS011;2113;50.946;14.610;2023-06-10T01:50:37;7.03;;;5.65;;
4198;SDS011;2113;50.946;14.610;2023-06-10T01:53:05;8.95;;;6.65;;
4198;SDS011;2113;50.946;14.610;2023-06-10T01:55:34;7.45;;;6.10;;
4198;SDS011;2113;50.946;14.610;2023-06-10T01:58:02;9.75;;;7.13;;
4198;SDS011;2113;50.946;14.610;2023-06-10T02:00:31;8.95;;;5.95;;
4198;SDS011;2113;50.946;14.610;2023-06-10T02:03:00;7.60;;;5.55;;
4198;SDS011;2113;50.946;14.610;2023-06-10T02:05:28;6.18;;;5.47;;
4198;SDS011;2113;50.946;14.610;2023-06-10T02:07:58;7.50;;;5.38;;
4198;SDS011;2113;50.946;14.610;2023-06-10T02:10:27;8.15;;;6.40;;
4198;SDS011;2113;50.946;14.610;2023-06-10T02:12:57;7.38;;;6.20;;
4198;SDS011;2113;50.946;14.610;2023-06-10T02:15:26;7.85;;;5.95;;
4198;SDS011;2113;50.946;14.610;2023-06-10T02:17:55;7.25;;;5.85;;
4198;SDS011;2113;50.946;14.610;2023-06-10T02:20:25;7.78;;;5.97;;
4198;SDS011;2113;50.946;14.610;2023-06-10T02:22:53;8.52;;;6.43;;
4198;SDS011;2113;50.946;14.610;2023-06-10T02:25:21;7.63;;;5.88;;
4198;SDS011;2113;50.946;14.610;2023-06-10T02:27:50;9.20;;;6.45;;
4198;SDS011;2113;50.946;14.610;2023-06-10T02:30:20;8.30;;;5.75;;
4198;SDS011;2113;50.946;14.610;2023-06-10T02:32:49;7.82;;;6.10;;
4198;SDS011;2113;50.946;14.610;2023-06-10T02:35:19;7.65;;;5.70;;
4198;SDS011;2113;50.946;14.610;2023-06-10T02:37:50;8.77;;;6.38;;
4198;SDS011;2113;50.946;14.610;2023-06-10T02:40:19;8.02;;;6.03;;
4198;SDS011;2113;50.946;14.610;2023-06-10T02:42:48;8.73;;;5.57;;
4198;SDS011;2113;50.946;14.610;2023-06-10T02:45:17;8.57;;;6.22;;
4198;SDS011;2113;50.946;14.610;2023-06-10T02:47:47;7.45;;;6.10;;
4198;SDS011;2113;50.946;14.610;2023-06-10T02:50:16;7.57;;;6.45;;
4198;SDS011;2113;50.946;14.610;2023-06-10T02:53:07;8.43;;;6.47;;
4198;SDS011;2113;50.946;14.610;2023-06-10T02:55:40;7.18;;;5.50;;
4198;SDS011;2113;50.946;14.610;2023-06-10T02:58:11;8.43;;;6.00;;
4198;SDS011;2113;50.946;14.610;2023-06-10T03:00:40;8.85;;;5.93;;
4198;SDS011;2113;50.946;14.610;2023-06-10T03:03:14;7.28;;;6.15;;
4198;SDS011;2113;50.946;14.610;2023-06-10T03:05:55;8.00;;;5.80;;
4198;SDS011;2113;50.946;14.610;2023-06-10T03:08:26;9.65;;;6.05;;
4198;SDS011;2113;50.946;14.610;2023-06-10T03:10:56;8.73;;;5.95;;
4198;SDS011;2113;50.946;14.610;2023-06-10T03:13:25;7.93;;;6.40;;
4198;SDS011;2113;50.946;14.610;2023-06-10T03:15:53;7.18;;;5.82;;
4198;SDS011;2113;50.946;14.610;2023-06-10T03:18:25;8.85;;;5.97;;
4198;SDS011;2113;50.946;14.610;2023-06-10T03:20:54;9.02;;;6.82;;
4198;SDS011;2113;50.946;14.610;2023-06-10T03:23:25;8.43;;;6.13;;
4198;SDS011;2113;50.946;14.610;2023-06-10T03:25:54;8.07;;;6.50;;
4198;SDS011;2113;50.946;14.610;2023-06-10T03:28:23;8.43;;;5.90;;
4198;SDS011;2113;50.946;14.610;2023-06-10T03:30:52;8.60;;;6.80;;
4198;SDS011;2113;50.946;14.610;2023-06-10T03:33:24;6.80;;;5.75;;
4198;SDS011;2113;50.946;14.610;2023-06-10T03:35:53;9.15;;;5.60;;
4198;SDS011;2113;50.946;14.610;2023-06-10T03:38:23;8.60;;;5.78;;
4198;SDS011;2113;50.946;14.610;2023-06-10T03:40:52;10.95;;;6.20;;
4198;SDS011;2113;50.946;14.610;2023-06-10T03:43:20;9.65;;;6.47;;
4198;SDS011;2113;50.946;14.610;2023-06-10T03:45:50;7.00;;;6.20;;
4198;SDS011;2113;50.946;14.610;2023-06-10T03:48:20;9.68;;;6.20;;
4198;SDS011;2113;50.946;14.610;2023-06-10T03:50:52;8.43;;;6.18;;
4198;SDS011;2113;50.946;14.610;2023-06-10T03:53:21;7.72;;;5.80;;
4198;SDS011;2113;50.946;14.610;2023-06-10T03:55:50;8.27;;;6.20;;
4198;SDS011;2113;50.946;14.610;2023-06-10T03:58:22;12.70;;;7.03;;
4198;SDS011;2113;50.946;14.610;2023-06-10T04:00:51;7.18;;;6.10;;
4198;SDS011;2113;50.946;14.610;2023-06-10T04:03:26;12.27;;;6.85;;
4198;SDS011;2113;50.946;14.610;2023-06-10T04:05:57;13.65;;;7.28;;
4198;SDS011;2113;50.946;14.610;2023-06-10T04:08:26;7.07;;;5.40;;
4198;SDS011;2113;50.946;14.610;2023-06-10T04:10:54;9.82;;;6.70;;
4198;SDS011;2113;50.946;14.610;2023-06-10T04:13:23;8.93;;;6.03;;
4198;SDS011;2113;50.946;14.610;2023-06-10T04:15:59;8.20;;;6.55;;
4198;SDS011;2113;50.946;14.610;2023-06-10T04:18:27;8.18;;;5.78;;
4198;SDS011;2113;50.946;14.610;2023-06-10T04:21:01;7.75;;;6.50;;
4198;SDS011;2113;50.946;14.610;2023-06-10T04:23:31;7.18;;;5.85;;
4198;SDS011;2113;50.946;14.610;2023-06-10T04:26:01;8.40;;;5.97;;
4198;SDS011;2113;50.946;14.610;2023-06-10T04:28:30;7.90;;;5.90;;
4198;SDS011;2113;50.946;14.610;2023-06-10T04:30:59;11.85;;;6.30;;
4198;SDS011;2113;50.946;14.610;2023-06-10T04:33:28;8.93;;;6.03;;
4198;SDS011;2113;50.946;14.610;2023-06-10T04:35:57;10.85;;;6.70;;
4198;SDS011;2113;50.946;14.610;2023-06-10T04:38:30;8.57;;;6.18;;
4198;SDS011;2113;50.946;14.610;2023-06-10T04:40:59;14.63;;;8.50;;
4198;SDS011;2113;50.946;14.610;2023-06-10T04:43:30;11.63;;;7.03;;
4198;SDS011;2113;50.946;14.610;2023-06-10T04:45:59;8.38;;;6.22;;
4198;SDS011;2113;50.946;14.610;2023-06-10T04:48:29;9.07;;;7.15;;
4198;SDS011;2113;50.946;14.610;2023-06-10T04:50:58;8.35;;;7.07;;
4198;SDS011;2113;50.946;14.610;2023-06-10T04:53:27;13.90;;;7.25;;
4198;SDS011;2113;50.946;14.610;2023-06-10T04:55:57;8.75;;;7.43;;
4198;SDS011;2113;50.946;14.610;2023-06-10T04:58:25;11.32;;;7.00;;
4198;SDS011;2113;50.946;14.610;2023-06-10T05:00:54;8.85;;;7.40;;
4198;SDS011;2113;50.946;14.610;2023-06-10T05:03:22;10.27;;;6.68;;
4198;SDS011;2113;50.946;14.610;2023-06-10T05:05:51;10.38;;;6.93;;
4198;SDS011;2113;50.946;14.610;2023-06-10T05:08:19;7.70;;;6.32;;
4198;SDS011;2113;50.946;14.610;2023-06-10T05:10:48;8.18;;;6.97;;
4198;SDS011;2113;50.946;14.610;2023-06-10T05:13:17;10.20;;;6.72;;
4198;SDS011;2113;50.946;14.610;2023-06-10T05:15:45;8.10;;;6.45;;
4198;SDS011;2113;50.946;14.610;2023-06-10T05:18:14;8.30;;;7.00;;
4198;SDS011;2113;50.946;14.610;2023-06-10T05:20:43;8.15;;;6.68;;
4198;SDS011;2113;50.946;14.610;2023-06-10T05:23:12;11.10;;;6.93;;
4198;SDS011;2113;50.946;14.610;2023-06-10T05:25:41;8.93;;;6.85;;
4198;SDS011;2113;50.946;14.610;2023-06-10T05:28:09;9.45;;;6.00;;
4198;SDS011;2113;50.946;14.610;2023-06-10T05:30:43;7.68;;;6.45;;
4198;SDS011;2113;50.946;14.610;2023-06-10T05:33:11;9.63;;;6.15;;
4198;SDS011;2113;50.946;14.610;2023-06-10T05:35:39;9.73;;;6.53;;
4198;SDS011;2113;50.946;14.610;2023-06-10T05:38:08;7.40;;;6.45;;
4198;SDS011;2113;50.946;14.610;2023-06-10T05:40:36;8.50;;;6.57;;
4198;SDS011;2113;50.946;14.610;2023-06-10T05:43:05;9.95;;;6.43;;
4198;SDS011;2113;50.946;14.610;2023-06-10T05:45:33;10.40;;;7.35;;
4198;SDS011;2113;50.946;14.610;2023-06-10T05:48:04;12.02;;;7.38;;
4198;SDS011;2113;50.946;14.610;2023-06-10T05:50:33;9.55;;;7.40;;
4198;SDS011;2113;50.946;14.610;2023-06-10T05:53:05;9.45;;;7.35;;
4198;SDS011;2113;50.946;14.610;2023-06-10T05:55:34;7.25;;;6.10;;
4198;SDS011;2113;50.946;14.610;2023-06-10T05:58:02;9.50;;;7.35;;
4198;SDS011;2113;50.946;14.610;2023-06-10T06:00:31;10.07;;;7.28;;
4198;SDS011;2113;50.946;14.610;2023-06-10T06:03:03;11.20;;;7.22;;
4198;SDS011;2113;50.946;14.610;2023-06-10T06:05:34;8.20;;;6.50;;
4198;SDS011;2113;50.946;14.610;2023-06-10T06:08:05;8.32;;;6.95;;
4198;SDS011;2113;50.946;14.610;2023-06-10T06:10:33;7.40;;;6.60;;
4198;SDS011;2113;50.946;14.610;2023-06-10T06:13:02;14.32;;;7.65;;
4198;SDS011;2113;50.946;14.610;2023-06-10T06:15:30;8.10;;;6.13;;
4198;SDS011;2113;50.946;14.610;2023-06-10T06:17:58;12.23;;;8.20;;
4198;SDS011;2113;50.946;14.610;2023-06-10T06:20:28;10.73;;;7.63;;
4198;SDS011;2113;50.946;14.610;2023-06-10T06:22:57;11.00;;;7.57;;
4198;SDS011;2113;50.946;14.610;2023-06-10T06:25:25;8.98;;;7.40;;
4198;SDS011;2113;50.946;14.610;2023-06-10T06:27:53;9.52;;;7.95;;
4198;SDS011;2113;50.946;14.610;2023-06-10T06:30:21;8.25;;;7.32;;
4198;SDS011;2113;50.946;14.610;2023-06-10T06:32:50;9.15;;;8.00;;
4198;SDS011;2113;50.946;14.610;2023-06-10T06:38:16;11.00;;;9.38;;
4198;SDS011;2113;50.946;14.610;2023-06-10T06:40:45;17.50;;;10.18;;
4198;SDS011;2113;50.946;14.610;2023-06-10T06:43:13;9.27;;;8.23;;
4198;SDS011;2113;50.946;14.610;2023-06-10T06:45:54;9.60;;;8.52;;
4198;SDS011;2113;50.946;14.610;2023-06-10T06:48:23;11.88;;;10.05;;
4198;SDS011;2113;50.946;14.610;2023-06-10T06:50:53;11.68;;;10.15;;
4198;SDS011;2113;50.946;14.610;2023-06-10T06:53:22;12.88;;;10.02;;
4198;SDS011;2113;50.946;14.610;2023-06-10T06:58:48;9.38;;;7.90;;
4198;SDS011;2113;50.946;14.610;2023-06-10T07:01:16;11.80;;;9.85;;
4198;SDS011;2113;50.946;14.610;2023-06-10T07:03:44;10.98;;;8.52;;
4198;SDS011;2113;50.946;14.610;2023-06-10T07:06:14;9.70;;;8.70;;
4198;SDS011;2113;50.946;14.610;2023-06-10T07:08:42;9.15;;;8.25;;
4198;SDS011;2113;50.946;14.610;2023-06-10T07:11:11;8.75;;;7.70;;
4198;SDS011;2113;50.946;14.610;2023-06-10T07:13:39;11.27;;;7.55;;
4198;SDS011;2113;50.946;14.610;2023-06-10T07:16:07;12.98;;;9.10;;
4198;SDS011;2113;50.946;14.610;2023-06-10T07:18:36;8.52;;;7.65;;
4198;SDS011;2113;50.946;14.610;2023-06-10T07:21:04;9.48;;;7.22;;
4198;SDS011;2113;50.946;14.610;2023-06-10T07:23:34;9.50;;;8.35;;
4198;SDS011;2113;50.946;14.610;2023-06-10T07:26:03;12.00;;;8.40;;
4198;SDS011;2113;50.946;14.610;2023-06-10T07:28:32;9.67;;;8.47;;
4198;SDS011;2113;50.946;14.610;2023-06-10T07:31:00;10.57;;;7.90;;
4198;SDS011;2113;50.946;14.610;2023-06-10T07:33:29;10.33;;;8.10;;
4198;SDS011;2113;50.946;14.610;2023-06-10T07:35:57;8.23;;;7.10;;
4198;SDS011;2113;50.946;14.610;2023-06-10T07:38:26;8.07;;;7.27;;
4198;SDS011;2113;50.946;14.610;2023-06-10T07:40:56;10.33;;;8.80;;
4198;SDS011;2113;50.946;14.610;2023-06-10T07:43:25;9.95;;;8.95;;
4198;SDS011;2113;50.946;14.610;2023-06-10T07:45:53;10.10;;;8.88;;
4198;SDS011;2113;50.946;14.610;2023-06-10T07:48:22;13.90;;;9.27;;
4198;SDS011;2113;50.946;14.610;2023-06-10T07:50:51;13.20;;;8.73;;
4198;SDS011;2113;50.946;14.610;2023-06-10T07:53:19;10.65;;;9.18;;
4198;SDS011;2113;50.946;14.610;2023-06-10T07:55:47;10.43;;;7.70;;
4198;SDS011;2113;50.946;14.610;2023-06-10T07:58:17;10.77;;;8.95;;
4198;SDS011;2113;50.946;14.610;2023-06-10T08:00:46;12.23;;;9.85;;
4198;SDS011;2113;50.946;14.610;2023-06-10T08:03:14;11.38;;;9.23;;
4198;SDS011;2113;50.946;14.610;2023-06-10T08:05:43;12.20;;;8.65;;
4198;SDS011;2113;50.946;14.610;2023-06-10T08:08:12;11.43;;;8.90;;
4198;SDS011;2113;50.946;14.610;2023-06-10T08:10:41;9.80;;;8.32;;
4198;SDS011;2113;50.946;14.610;2023-06-10T08:13:11;9.55;;;8.65;;
4198;SDS011;2113;50.946;14.610;2023-06-10T08:15:41;11.10;;;8.70;;
4198;SDS011;2113;50.946;14.610;2023-06-10T08:18:09;10.02;;;8.15;;
4198;SDS011;2113;50.946;14.610;2023-06-10T08:20:38;9.93;;;8.65;;
4198;SDS011;2113;50.946;14.610;2023-06-10T08:23:06;10.50;;;9.15;;
4198;SDS011;2113;50.946;14.610;2023-06-10T08:25:34;12.70;;;9.55;;
4198;SDS011;2113;50.946;14.610;2023-06-10T08:28:02;9.30;;;8.05;;
4198;SDS011;2113;50.946;14.610;2023-06-10T08:30:31;9.63;;;8.38;;
4198;SDS011;2113;50.946;14.610;2023-06-10T08:33:01;10.05;;;9.05;;
4198;SDS011;2113;50.946;14.610;2023-06-10T08:35:30;8.40;;;7.50;;
4198;SDS011;2113;50.946;14.610;2023-06-10T08:38:00;8.18;;;7.35;;
4198;SDS011;2113;50.946;14.610;2023-06-10T08:40:28;10.88;;;7.55;;
4198;SDS011;2113;50.946;14.610;2023-06-10T08:43:00;10.98;;;8.48;;
4198;SDS011;2113;50.946;14.610;2023-06-10T08:45:35;9.38;;;7.00;;
4198;SDS011;2113;50.946;14.610;2023-06-10T08:48:08;9.18;;;7.30;;
4198;SDS011;2113;50.946;14.610;2023-06-10T08:50:39;12.27;;;6.68;;
4198;SDS011;2113;50.946;14.610;2023-06-10T08:53:08;8.85;;;7.95;;
4198;SDS011;2113;50.946;14.610;2023-06-10T08:55:46;7.82;;;6.85;;
4198;SDS011;2113;50.946;14.610;2023-06-10T08:58:19;9.35;;;7.55;;
4198;SDS011;2113;50.946;14.610;2023-06-10T09:00:48;7.63;;;6.90;;
4198;SDS011;2113;50.946;14.610;2023-06-10T09:03:19;10.82;;;7.30;;
4198;SDS011;2113;50.946;14.610;2023-06-10T09:05:48;7.45;;;6.75;;
4198;SDS011;2113;50.946;14.610;2023-06-10T09:08:17;8.35;;;7.03;;
4198;SDS011;2113;50.946;14.610;2023-06-10T09:10:47;7.63;;;6.82;;
4198;SDS011;2113;50.946;14.610;2023-06-10T09:13:16;8.05;;;6.43;;
4198;SDS011;2113;50.946;14.610;2023-06-10T09:15:45;12.45;;;8.23;;
4198;SDS011;2113;50.946;14.610;2023-06-10T09:18:15;7.30;;;6.47;;
4198;SDS011;2113;50.946;14.610;2023-06-10T09:20:46;10.35;;;6.32;;
4198;SDS011;2113;50.946;14.610;2023-06-10T09:23:15;8.75;;;7.53;;
4198;SDS011;2113;50.946;14.610;2023-06-10T09:25:43;9.50;;;7.23;;
4198;SDS011;2113;50.946;14.610;2023-06-10T09:28:15;7.77;;;6.97;;
4198;SDS011;2113;50.946;14.610;2023-06-10T09:30:43;8.47;;;7.37;;
4198;SDS011;2113;50.946;14.610;2023-06-10T09:33:12;9.93;;;7.60;;
4198;SDS011;2113;50.946;14.610;2023-06-10T09:35:49;8.73;;;7.83;;
4198;SDS011;2113;50.946;14.610;2023-06-10T09:38:19;9.20;;;8.30;;
4198;SDS011;2113;50.946;14.610;2023-06-10T09:40:49;9.40;;;8.27;;
4198;SDS011;2113;50.946;14.610;2023-06-10T09:43:18;9.45;;;7.80;;
4198;SDS011;2113;50.946;14.610;2023-06-10T09:45:47;9.57;;;7.45;;
4198;SDS011;2113;50.946;14.610;2023-06-10T09:48:16;9.48;;;8.48;;
4198;SDS011;2113;50.946;14.610;2023-06-10T09:50:44;8.80;;;7.85;;
4198;SDS011;2113;50.946;14.610;2023-06-10T09:53:16;8.75;;;7.75;;
4198;SDS011;2113;50.946;14.610;2023-06-10T09:55:45;9.38;;;8.07;;
4198;SDS011;2113;50.946;14.610;2023-06-10T09:58:14;10.98;;;7.80;;
4198;SDS011;2113;50.946;14.610;2023-06-10T10:00:42;9.30;;;8.25;;
4198;SDS011;2113;50.946;14.610;2023-06-10T10:03:10;13.00;;;9.32;;
4198;SDS011;2113;50.946;14.610;2023-06-10T10:05:52;10.63;;;8.95;;
4198;SDS011;2113;50.946;14.610;2023-06-10T10:08:27;9.70;;;8.00;;
4198;SDS011;2113;50.946;14.610;2023-06-10T10:10:56;9.15;;;8.10;;
4198;SDS011;2113;50.946;14.610;2023-06-10T10:13:25;12.45;;;9.73;;
4198;SDS011;2113;50.946;14.610;2023-06-10T10:15:55;11.70;;;8.93;;
4198;SDS011;2113;50.946;14.610;2023-06-10T10:18:29;9.95;;;8.80;;
4198;SDS011;2113;50.946;14.610;2023-06-10T10:21:00;13.10;;;9.95;;
4198;SDS011;2113;50.946;14.610;2023-06-10T10:23:38;10.10;;;8.40;;
4198;SDS011;2113;50.946;14.610;2023-06-10T10:26:12;10.68;;;8.57;;
4198;SDS011;2113;50.946;14.610;2023-06-10T10:28:44;11.18;;;9.98;;
4198;SDS011;2113;50.946;14.610;2023-06-10T10:31:16;9.55;;;8.52;;
4198;SDS011;2113;50.946;14.610;2023-06-10T10:33:48;12.38;;;10.65;;
4198;SDS011;2113;50.946;14.610;2023-06-10T10:36:23;11.35;;;10.15;;
4198;SDS011;2113;50.946;14.610;2023-06-10T10:38:53;11.73;;;10.23;;
4198;SDS011;2113;50.946;14.610;2023-06-10T10:41:23;9.43;;;8.27;;
4198;SDS011;2113;50.946;14.610;2023-06-10T10:43:53;11.48;;;9.85;;
4198;SDS011;2113;50.946;14.610;2023-06-10T10:46:21;11.02;;;9.80;;
4198;SDS011;2113;50.946;14.610;2023-06-10T10:48:51;11.43;;;10.10;;
4198;SDS011;2113;50.946;14.610;2023-06-10T10:51:22;11.75;;;9.52;;
4198;SDS011;2113;50.946;14.610;2023-06-10T10:54:11;12.05;;;10.00;;
4198;SDS011;2113;50.946;14.610;2023-06-10T10:59:53;11.65;;;9.07;;
4198;SDS011;2113;50.946;14.610;2023-06-10T11:02:32;12.55;;;9.13;;
4198;SDS011;2113;50.946;14.610;2023-06-10T11:05:06;10.98;;;9.70;;
4198;SDS011;2113;50.946;14.610;2023-06-10T11:07:35;12.43;;;11.13;;
4198;SDS011;2113;50.946;14.610;2023-06-10T11:10:07;13.32;;;10.05;;
4198;SDS011;2113;50.946;14.610;2023-06-10T11:12:52;13.55;;;11.05;;
4198;SDS011;2113;50.946;14.610;2023-06-10T11:15:23;13.25;;;10.05;;
4198;SDS011;2113;50.946;14.610;2023-06-10T11:18:08;10.93;;;9.85;;
4198;SDS011;2113;50.946;14.610;2023-06-10T11:20:45;11.48;;;10.27;;
4198;SDS011;2113;50.946;14.610;2023-06-10T11:23:33;13.05;;;10.23;;
4198;SDS011;2113;50.946;14.610;2023-06-10T11:26:13;12.70;;;11.40;;
4198;SDS011;2113;50.946;14.610;2023-06-10T11:29:08;11.13;;;10.00;;
4198;SDS011;2113;50.946;14.610;2023-06-10T11:31:41;11.10;;;9.90;;
4198;SDS011;2113;50.946;14.610;2023-06-10T11:34:15;10.65;;;9.57;;
4198;SDS011;2113;50.946;14.610;2023-06-10T11:36:49;11.10;;;9.90;;
4198;SDS011;2113;50.946;14.610;2023-06-10T11:39:20;12.25;;;9.93;;
4198;SDS011;2113;50.946;14.610;2023-06-10T11:41:55;14.65;;;10.10;;
4198;SDS011;2113;50.946;14.610;2023-06-10T11:44:25;10.93;;;9.82;;
4198;SDS011;2113;50.946;14.610;2023-06-10T11:47:13;10.98;;;9.82;;
4198;SDS011;2113;50.946;14.610;2023-06-10T11:49:42;13.05;;;11.10;;
4198;SDS011;2113;50.946;14.610;2023-06-10T11:52:13;11.50;;;10.20;;
4198;SDS011;2113;50.946;14.610;2023-06-10T11:54:41;12.40;;;10.85;;
4198;SDS011;2113;50.946;14.610;2023-06-10T11:57:09;12.18;;;10.88;;
4198;SDS011;2113;50.946;14.610;2023-06-10T11:59:38;10.80;;;9.57;;
4198;SDS011;2113;50.946;14.610;2023-06-10T12:02:07;10.65;;;9.35;;
4198;SDS011;2113;50.946;14.610;2023-06-10T12:04:46;12.63;;;11.32;;
4198;SDS011;2113;50.946;14.610;2023-06-10T12:07:17;11.18;;;9.57;;
4198;SDS011;2113;50.946;14.610;2023-06-10T12:09:46;11.07;;;9.37;;
4198;SDS011;2113;50.946;14.610;2023-06-10T12:12:14;14.10;;;10.53;;
4198;SDS011;2113;50.946;14.610;2023-06-10T12:14:52;11.00;;;9.40;;
4198;SDS011;2113;50.946;14.610;2023-06-10T12:17:35;10.70;;;9.70;;
4198;SDS011;2113;50.946;14.610;2023-06-10T12:20:06;11.93;;;10.80;;
4198;SDS011;2113;50.946;14.610;2023-06-10T12:22:36;11.07;;;9.02;;
4198;SDS011;2113;50.946;14.610;2023-06-10T12:25:05;10.98;;;9.05;;
4198;SDS011;2113;50.946;14.610;2023-06-10T12:27:35;10.07;;;8.93;;
4198;SDS011;2113;50.946;14.610;2023-06-10T12:30:05;11.45;;;8.40;;
4198;SDS011;2113;50.946;14.610;2023-06-10T12:32:37;8.83;;;7.93;;
4198;SDS011;2113;50.946;14.610;2023-06-10T12:35:08;10.00;;;8.37;;
4198;SDS011;2113;50.946;14.610;2023-06-10T12:37:39;9.17;;;7.93;;
4198;SDS011;2113;50.946;14.610;2023-06-10T12:40:10;9.07;;;8.07;;
4198;SDS011;2113;50.946;14.610;2023-06-10T12:42:39;9.90;;;7.87;;
4198;SDS011;2113;50.946;14.610;2023-06-10T12:45:08;8.30;;;7.43;;
4198;SDS011;2113;50.946;14.610;2023-06-10T12:47:40;8.90;;;7.83;;
4198;SDS011;2113;50.946;14.610;2023-06-10T12:50:09;10.97;;;8.13;;
4198;SDS011;2113;50.946;14.610;2023-06-10T12:52:39;8.87;;;7.63;;
4198;SDS011;2113;50.946;14.610;2023-06-10T12:55:09;8.00;;;7.20;;
4198;SDS011;2113;50.946;14.610;2023-06-10T12:57:47;9.70;;;7.10;;
4198;SDS011;2113;50.946;14.610;2023-06-10T13:00:16;12.33;;;7.97;;
4198;SDS011;2113;50.946;14.610;2023-06-10T13:02:47;9.43;;;7.87;;
4198;SDS011;2113;50.946;14.610;2023-06-10T13:05:17;10.30;;;7.83;;
4198;SDS011;2113;50.946;14.610;2023-06-10T13:07:46;9.10;;;7.27;;
4198;SDS011;2113;50.946;14.610;2023-06-10T13:10:15;9.40;;;7.30;;
4198;SDS011;2113;50.946;14.610;2023-06-10T13:12:47;9.80;;;7.50;;
4198;SDS011;2113;50.946;14.610;2023-06-10T13:15:16;11.90;;;8.37;;
4198;SDS011;2113;50.946;14.610;2023-06-10T13:17:45;8.90;;;8.10;;
4198;SDS011;2113;50.946;14.610;2023-06-10T13:20:19;7.97;;;7.17;;
4198;SDS011;2113;50.946;14.610;2023-06-10T13:22:48;8.73;;;7.93;;
4198;SDS011;2113;50.946;14.610;2023-06-10T13:25:17;12.27;;;8.33;;
4198;SDS011;2113;50.946;14.610;2023-06-10T13:27:45;14.30;;;9.07;;
4198;SDS011;2113;50.946;14.610;2023-06-10T13:30:13;12.07;;;8.67;;
4198;SDS011;2113;50.946;14.610;2023-06-10T13:32:42;15.43;;;10.20;;
4198;SDS011;2113;50.946;14.610;2023-06-10T13:35:10;12.33;;;11.03;;
4198;SDS011;2113;50.946;14.610;2023-06-10T13:37:40;13.93;;;10.80;;
4198;SDS011;2113;50.946;14.610;2023-06-10T13:40:09;14.20;;;10.80;;
4198;SDS011;2113;50.946;14.610;2023-06-10T13:42:38;14.73;;;12.13;;
4198;SDS011;2113;50.946;14.610;2023-06-10T13:45:06;13.60;;;11.93;;
4198;SDS011;2113;50.946;14.610;2023-06-10T13:47:36;12.27;;;11.03;;
4198;SDS011;2113;50.946;14.610;2023-06-10T13:50:06;12.33;;;10.87;;
4198;SDS011;2113;50.946;14.610;2023-06-10T13:52:35;12.67;;;11.20;;
4198;SDS011;2113;50.946;14.610;2023-06-10T13:55:05;12.67;;;11.40;;
4198;SDS011;2113;50.946;14.610;2023-06-10T13:57:34;12.73;;;11.37;;
4198;SDS011;2113;50.946;14.610;2023-06-10T14:00:03;13.17;;;11.87;;
4198;SDS011;2113;50.946;14.610;2023-06-10T14:02:33;16.30;;;11.50;;
4198;SDS011;2113;50.946;14.610;2023-06-10T14:05:01;16.80;;;12.20;;
4198;SDS011;2113;50.946;14.610;2023-06-10T14:07:30;13.67;;;11.43;;
4198;SDS011;2113;50.946;14.610;2023-06-10T14:09:58;12.40;;;11.20;;
4198;SDS011;2113;50.946;14.610;2023-06-10T14:12:28;13.13;;;11.70;;
4198;SDS011;2113;50.946;14.610;2023-06-10T14:14:56;13.27;;;11.87;;
4198;SDS011;2113;50.946;14.610;2023-06-10T14:17:25;14.13;;;12.63;;
4198;SDS011;2113;50.946;14.610;2023-06-10T14:19:53;12.33;;;10.57;;
4198;SDS011;2113;50.946;14.610;2023-06-10T14:22:21;11.20;;;10.07;;
4198;SDS011;2113;50.946;14.610;2023-06-10T14:24:49;12.60;;;11.03;;
4198;SDS011;2113;50.946;14.610;2023-06-10T14:27:18;14.67;;;12.27;;
4198;SDS011;2113;50.946;14.610;2023-06-10T14:29:48;15.30;;;11.23;;
4198;SDS011;2113;50.946;14.610;2023-06-10T14:32:16;12.53;;;11.30;;
4198;SDS011;2113;50.946;14.610;2023-06-10T14:34:45;22.00;;;12.77;;
4198;SDS011;2113;50.946;14.610;2023-06-10T14:37:14;13.50;;;12.20;;
4198;SDS011;2113;50.946;14.610;2023-06-10T14:39:42;11.53;;;10.37;;
4198;SDS011;2113;50.946;14.610;2023-06-10T14:42:10;14.70;;;11.60;;
4198;SDS011;2113;50.946;14.610;2023-06-10T14:44:39;11.57;;;10.33;;
4198;SDS011;2113;50.946;14.610;2023-06-10T14:47:08;12.60;;;9.60;;
4198;SDS011;2113;50.946;14.610;2023-06-10T14:49:36;12.77;;;11.50;;
4198;SDS011;2113;50.946;14.610;2023-06-10T14:52:05;10.97;;;9.87;;
4198;SDS011;2113;50.946;14.610;2023-06-10T14:54:34;12.53;;;8.27;;
4198;SDS011;2113;50.946;14.610;2023-06-10T14:57:02;9.70;;;7.87;;
4198;SDS011;2113;50.946;14.610;2023-06-10T14:59:32;8.60;;;7.70;;
4198;SDS011;2113;50.946;14.610;2023-06-10T15:02:00;9.00;;;7.23;;
4198;SDS011;2113;50.946;14.610;2023-06-10T15:04:30;9.32;;;7.70;;
4198;SDS011;2113;50.946;14.610;2023-06-10T15:06:59;10.30;;;9.13;;
4198;SDS011;2113;50.946;14.610;2023-06-10T15:09:27;10.97;;;8.20;;
4198;SDS011;2113;50.946;14.610;2023-06-10T15:11:56;9.83;;;8.13;;
4198;SDS011;2113;50.946;14.610;2023-06-10T15:14:24;14.10;;;9.25;;
4198;SDS011;2113;50.946;14.610;2023-06-10T15:16:53;11.40;;;8.40;;
4198;SDS011;2113;50.946;14.610;2023-06-10T15:19:22;10.20;;;9.20;;